Buchanan Dam, Texas
Current Conditions -  °F | °C
As of 1:53 AM on Wednesday 26 Nov 2014 (Local Time) from KBMQ Reporting Station
Clear Clear  
Wind Chill: 36°   Ceiling: Unl
Heat Index: 36°   Visibility: NA
Dew Point: 30°   Wind: 0mph
Humidity: 79%   Direction: NA
Pressure: 30.17"   Gusts: NA
Location:  30.75°N, 98.42°W
Report Text: KBMQ 260753Z AUTO 00000KT CLR 02/M01 A3017 RMK AO2 SLP215 T00221011 $
Loading
Personal Weather Stations






























Interactive Weather Map New forecast layout! Learn more

10-Day Weather Forecast

Advertisements
Track Severe Weather on mobile